sensor_id;sensor_type;location;lat;lon;timestamp;P1;durP1;ratioP1;P2;durP2;ratioP2
52798;SDS011;38667;42.872;74.622;2024-02-15T00:00:29;40.30;;;15.63;;
52798;SDS011;38667;42.872;74.622;2024-02-15T00:02:56;49.20;;;16.45;;
52798;SDS011;38667;42.872;74.622;2024-02-15T00:05:26;67.88;;;21.02;;
52798;SDS011;38667;42.872;74.622;2024-02-15T00:07:52;61.22;;;24.85;;
52798;SDS011;38667;42.872;74.622;2024-02-15T00:10:18;49.90;;;22.95;;
52798;SDS011;38667;42.872;74.622;2024-02-15T00:12:45;133.27;;;26.95;;
52798;SDS011;38667;42.872;74.622;2024-02-15T00:15:11;138.27;;;26.90;;
52798;SDS011;38667;42.872;74.622;2024-02-15T00:17:38;131.05;;;23.95;;
52798;SDS011;38667;42.872;74.622;2024-02-15T00:20:04;77.05;;;24.10;;
52798;SDS011;38667;42.872;74.622;2024-02-15T00:22:33;88.63;;;24.80;;
52798;SDS011;38667;42.872;74.622;2024-02-15T00:24:59;90.07;;;25.10;;
52798;SDS011;38667;42.872;74.622;2024-02-15T00:27:25;93.10;;;24.10;;
52798;SDS011;38667;42.872;74.622;2024-02-15T00:29:52;57.58;;;23.98;;
52798;SDS011;38667;42.872;74.622;2024-02-15T00:32:18;62.42;;;22.65;;
52798;SDS011;38667;42.872;74.622;2024-02-15T00:34:45;73.07;;;24.05;;
52798;SDS011;38667;42.872;74.622;2024-02-15T00:37:11;65.35;;;26.50;;
52798;SDS011;38667;42.872;74.622;2024-02-15T00:39:39;82.88;;;30.40;;
52798;SDS011;38667;42.872;74.622;2024-02-15T00:42:05;72.30;;;27.77;;
52798;SDS011;38667;42.872;74.622;2024-02-15T00:44:32;100.70;;;36.95;;
52798;SDS011;38667;42.872;74.622;2024-02-15T00:46:58;135.70;;;49.75;;
52798;SDS011;38667;42.872;74.622;2024-02-15T00:49:24;77.63;;;29.95;;
52798;SDS011;38667;42.872;74.622;2024-02-15T00:51:51;47.28;;;18.42;;
52798;SDS011;38667;42.872;74.622;2024-02-15T00:54:17;58.78;;;27.45;;
52798;SDS011;38667;42.872;74.622;2024-02-15T00:56:45;75.65;;;26.58;;
52798;SDS011;38667;42.872;74.622;2024-02-15T00:59:11;533.05;;;49.50;;
52798;SDS011;38667;42.872;74.622;2024-02-15T01:01:38;161.52;;;32.05;;
52798;SDS011;38667;42.872;74.622;2024-02-15T01:04:04;88.72;;;27.88;;
52798;SDS011;38667;42.872;74.622;2024-02-15T01:06:31;114.85;;;29.70;;
52798;SDS011;38667;42.872;74.622;2024-02-15T01:08:57;93.07;;;30.08;;
52798;SDS011;38667;42.872;74.622;2024-02-15T01:11:24;84.82;;;29.95;;
52798;SDS011;38667;42.872;74.622;2024-02-15T01:13:52;99.13;;;30.33;;
52798;SDS011;38667;42.872;74.622;2024-02-15T01:16:18;86.75;;;29.58;;
52798;SDS011;38667;42.872;74.622;2024-02-15T01:18:45;99.00;;;30.73;;
52798;SDS011;38667;42.872;74.622;2024-02-15T01:21:11;105.30;;;31.63;;
52798;SDS011;38667;42.872;74.622;2024-02-15T01:23:38;96.35;;;29.10;;
52798;SDS011;38667;42.872;74.622;2024-02-15T01:26:04;122.40;;;30.30;;
52798;SDS011;38667;42.872;74.622;2024-02-15T01:28:30;95.38;;;30.02;;
52798;SDS011;38667;42.872;74.622;2024-02-15T01:30:58;106.72;;;29.13;;
52798;SDS011;38667;42.872;74.622;2024-02-15T01:33:25;115.95;;;30.05;;
52798;SDS011;38667;42.872;74.622;2024-02-15T01:35:51;145.38;;;30.38;;
52798;SDS011;38667;42.872;74.622;2024-02-15T01:38:17;121.97;;;28.77;;
52798;SDS011;38667;42.872;74.622;2024-02-15T01:40:44;128.63;;;29.02;;
52798;SDS011;38667;42.872;74.622;2024-02-15T01:43:12;122.50;;;30.37;;
52798;SDS011;38667;42.872;74.622;2024-02-15T01:45:39;159.13;;;32.78;;
52798;SDS011;38667;42.872;74.622;2024-02-15T01:48:07;141.63;;;32.35;;
52798;SDS011;38667;42.872;74.622;2024-02-15T01:50:34;149.85;;;30.50;;
52798;SDS011;38667;42.872;74.622;2024-02-15T01:53:01;87.05;;;25.33;;
52798;SDS011;38667;42.872;74.622;2024-02-15T01:55:32;94.70;;;24.73;;
52798;SDS011;38667;42.872;74.622;2024-02-15T01:57:58;107.80;;;26.42;;
52798;SDS011;38667;42.872;74.622;2024-02-15T02:00:25;131.03;;;27.03;;
52798;SDS011;38667;42.872;74.622;2024-02-15T02:02:52;111.63;;;26.80;;
52798;SDS011;38667;42.872;74.622;2024-02-15T02:05:20;88.60;;;24.55;;
52798;SDS011;38667;42.872;74.622;2024-02-15T02:07:47;186.13;;;53.20;;
52798;SDS011;38667;42.872;74.622;2024-02-15T02:10:13;115.30;;;28.35;;
52798;SDS011;38667;42.872;74.622;2024-02-15T02:12:40;90.45;;;24.90;;
52798;SDS011;38667;42.872;74.622;2024-02-15T02:15:07;95.67;;;25.00;;
52798;SDS011;38667;42.872;74.622;2024-02-15T02:17:34;113.40;;;27.15;;
52798;SDS011;38667;42.872;74.622;2024-02-15T02:20:01;100.85;;;26.92;;
52798;SDS011;38667;42.872;74.622;2024-02-15T02:22:29;106.20;;;27.98;;
52798;SDS011;38667;42.872;74.622;2024-02-15T02:24:59;125.57;;;32.17;;
52798;SDS011;38667;42.872;74.622;2024-02-15T02:27:27;124.43;;;30.83;;
52798;SDS011;38667;42.872;74.622;2024-02-15T02:29:53;116.07;;;31.92;;
52798;SDS011;38667;42.872;74.622;2024-02-15T02:32:20;119.25;;;30.85;;
52798;SDS011;38667;42.872;74.622;2024-02-15T02:34:46;117.30;;;34.15;;
52798;SDS011;38667;42.872;74.622;2024-02-15T02:37:13;120.55;;;32.85;;
52798;SDS011;38667;42.872;74.622;2024-02-15T02:39:39;104.82;;;35.03;;
52798;SDS011;38667;42.872;74.622;2024-02-15T02:42:07;106.82;;;32.55;;
52798;SDS011;38667;42.872;74.622;2024-02-15T02:44:34;147.02;;;34.65;;
52798;SDS011;38667;42.872;74.622;2024-02-15T02:47:00;122.13;;;33.55;;
52798;SDS011;38667;42.872;74.622;2024-02-15T02:49:27;136.50;;;37.13;;
52798;SDS011;38667;42.872;74.622;2024-02-15T02:51:53;153.25;;;35.88;;
52798;SDS011;38667;42.872;74.622;2024-02-15T02:54:20;130.07;;;32.15;;
52798;SDS011;38667;42.872;74.622;2024-02-15T02:56:46;132.40;;;31.10;;
52798;SDS011;38667;42.872;74.622;2024-02-15T02:59:14;133.23;;;28.70;;
52798;SDS011;38667;42.872;74.622;2024-02-15T03:01:40;99.40;;;27.90;;
52798;SDS011;38667;42.872;74.622;2024-02-15T03:04:06;97.35;;;24.08;;
52798;SDS011;38667;42.872;74.622;2024-02-15T03:06:33;103.03;;;29.88;;
52798;SDS011;38667;42.872;74.622;2024-02-15T03:08:59;69.38;;;22.17;;
52798;SDS011;38667;42.872;74.622;2024-02-15T03:11:26;126.20;;;32.50;;
52798;SDS011;38667;42.872;74.622;2024-02-15T03:13:52;96.90;;;27.30;;
52798;SDS011;38667;42.872;74.622;2024-02-15T03:16:23;143.32;;;34.35;;
52798;SDS011;38667;42.872;74.622;2024-02-15T03:18:49;135.73;;;33.35;;
52798;SDS011;38667;42.872;74.622;2024-02-15T03:21:16;133.25;;;33.42;;
52798;SDS011;38667;42.872;74.622;2024-02-15T03:23:42;129.73;;;32.40;;
52798;SDS011;38667;42.872;74.622;2024-02-15T03:26:08;133.27;;;32.42;;
52798;SDS011;38667;42.872;74.622;2024-02-15T03:28:35;122.68;;;31.30;;
52798;SDS011;38667;42.872;74.622;2024-02-15T03:31:01;121.28;;;29.95;;
52798;SDS011;38667;42.872;74.622;2024-02-15T03:33:29;146.27;;;30.58;;
52798;SDS011;38667;42.872;74.622;2024-02-15T03:35:55;70.30;;;19.95;;
52798;SDS011;38667;42.872;74.622;2024-02-15T03:38:22;60.88;;;16.50;;
52798;SDS011;38667;42.872;74.622;2024-02-15T03:40:48;74.10;;;18.67;;
52798;SDS011;38667;42.872;74.622;2024-02-15T03:43:14;91.53;;;22.20;;
52798;SDS011;38667;42.872;74.622;2024-02-15T03:45:41;80.88;;;25.20;;
52798;SDS011;38667;42.872;74.622;2024-02-15T03:48:07;53.55;;;18.58;;
52798;SDS011;38667;42.872;74.622;2024-02-15T03:50:35;73.40;;;21.25;;
52798;SDS011;38667;42.872;74.622;2024-02-15T03:53:01;122.78;;;26.58;;
52798;SDS011;38667;42.872;74.622;2024-02-15T03:55:28;112.90;;;26.88;;
52798;SDS011;38667;42.872;74.622;2024-02-15T03:57:54;100.43;;;24.73;;
52798;SDS011;38667;42.872;74.622;2024-02-15T04:00:21;113.60;;;24.75;;
52798;SDS011;38667;42.872;74.622;2024-02-15T04:02:47;102.57;;;25.42;;
52798;SDS011;38667;42.872;74.622;2024-02-15T04:05:14;91.60;;;23.98;;
52798;SDS011;38667;42.872;74.622;2024-02-15T04:07:42;63.00;;;17.42;;
52798;SDS011;38667;42.872;74.622;2024-02-15T04:10:09;35.42;;;10.55;;
52798;SDS011;38667;42.872;74.622;2024-02-15T04:12:35;87.88;;;20.83;;
52798;SDS011;38667;42.872;74.622;2024-02-15T04:15:02;80.32;;;22.67;;
52798;SDS011;38667;42.872;74.622;2024-02-15T04:17:29;56.20;;;13.75;;
52798;SDS011;38667;42.872;74.622;2024-02-15T04:19:55;70.03;;;16.65;;
52798;SDS011;38667;42.872;74.622;2024-02-15T04:22:21;58.33;;;14.50;;
52798;SDS011;38667;42.872;74.622;2024-02-15T04:24:49;71.00;;;17.50;;
52798;SDS011;38667;42.872;74.622;2024-02-15T04:27:16;76.65;;;16.95;;
52798;SDS011;38667;42.872;74.622;2024-02-15T04:29:42;70.25;;;15.25;;
52798;SDS011;38667;42.872;74.622;2024-02-15T04:32:08;33.33;;;9.88;;
52798;SDS011;38667;42.872;74.622;2024-02-15T04:34:35;34.72;;;10.02;;
52798;SDS011;38667;42.872;74.622;2024-02-15T04:37:02;35.45;;;11.48;;
52798;SDS011;38667;42.872;74.622;2024-02-15T04:39:29;36.47;;;13.77;;
52798;SDS011;38667;42.872;74.622;2024-02-15T04:41:57;43.03;;;15.60;;
52798;SDS011;38667;42.872;74.622;2024-02-15T04:44:23;41.15;;;16.50;;
52798;SDS011;38667;42.872;74.622;2024-02-15T04:46:49;40.20;;;13.63;;
52798;SDS011;38667;42.872;74.622;2024-02-15T04:49:16;23.63;;;9.40;;
52798;SDS011;38667;42.872;74.622;2024-02-15T04:51:42;37.25;;;10.40;;
52798;SDS011;38667;42.872;74.622;2024-02-15T04:54:09;31.77;;;12.30;;
52798;SDS011;38667;42.872;74.622;2024-02-15T04:56:36;51.90;;;17.02;;
52798;SDS011;38667;42.872;74.622;2024-02-15T04:59:04;56.33;;;20.05;;
52798;SDS011;38667;42.872;74.622;2024-02-15T05:01:30;51.78;;;19.25;;
52798;SDS011;38667;42.872;74.622;2024-02-15T05:03:57;40.13;;;15.52;;
52798;SDS011;38667;42.872;74.622;2024-02-15T05:06:23;40.80;;;16.27;;
52798;SDS011;38667;42.872;74.622;2024-02-15T05:08:49;32.15;;;9.95;;
52798;SDS011;38667;42.872;74.622;2024-02-15T05:11:16;30.48;;;9.40;;
52798;SDS011;38667;42.872;74.622;2024-02-15T05:13:42;26.77;;;9.52;;
52798;SDS011;38667;42.872;74.622;2024-02-15T05:16:10;26.02;;;11.25;;
52798;SDS011;38667;42.872;74.622;2024-02-15T05:21:40;30.33;;;10.13;;
52798;SDS011;38667;42.872;74.622;2024-02-15T05:24:06;23.20;;;7.22;;
52798;SDS011;38667;42.872;74.622;2024-02-15T05:26:32;25.27;;;8.50;;
52798;SDS011;38667;42.872;74.622;2024-02-15T05:28:59;21.63;;;7.35;;
52798;SDS011;38667;42.872;74.622;2024-02-15T05:31:27;26.05;;;8.70;;
52798;SDS011;38667;42.872;74.622;2024-02-15T05:33:53;24.50;;;7.20;;
52798;SDS011;38667;42.872;74.622;2024-02-15T05:36:20;25.83;;;12.15;;
52798;SDS011;38667;42.872;74.622;2024-02-15T05:38:47;16.05;;;7.53;;
52798;SDS011;38667;42.872;74.622;2024-02-15T05:41:14;18.52;;;7.88;;
52798;SDS011;38667;42.872;74.622;2024-02-15T05:43:40;20.05;;;7.63;;
52798;SDS011;38667;42.872;74.622;2024-02-15T05:46:07;21.35;;;10.25;;
52798;SDS011;38667;42.872;74.622;2024-02-15T05:48:35;26.20;;;10.50;;
52798;SDS011;38667;42.872;74.622;2024-02-15T05:51:02;36.30;;;10.18;;
52798;SDS011;38667;42.872;74.622;2024-02-15T05:53:29;26.50;;;10.85;;
52798;SDS011;38667;42.872;74.622;2024-02-15T05:55:56;21.80;;;10.25;;
52798;SDS011;38667;42.872;74.622;2024-02-15T05:58:22;21.60;;;9.30;;
52798;SDS011;38667;42.872;74.622;2024-02-15T06:00:49;21.38;;;8.38;;
52798;SDS011;38667;42.872;74.622;2024-02-15T06:03:15;28.38;;;12.27;;
52798;SDS011;38667;42.872;74.622;2024-02-15T06:05:43;16.70;;;7.63;;
52798;SDS011;38667;42.872;74.622;2024-02-15T06:08:10;19.83;;;8.13;;
52798;SDS011;38667;42.872;74.622;2024-02-15T06:10:36;25.73;;;8.57;;
52798;SDS011;38667;42.872;74.622;2024-02-15T06:13:03;19.42;;;7.18;;
52798;SDS011;38667;42.872;74.622;2024-02-15T06:15:29;24.92;;;9.55;;
52798;SDS011;38667;42.872;74.622;2024-02-15T06:17:56;21.48;;;9.40;;
52798;SDS011;38667;42.872;74.622;2024-02-15T06:20:22;29.17;;;9.70;;
52798;SDS011;38667;42.872;74.622;2024-02-15T06:22:50;20.55;;;9.57;;
52798;SDS011;38667;42.872;74.622;2024-02-15T06:25:16;24.73;;;9.18;;
52798;SDS011;38667;42.872;74.622;2024-02-15T06:27:43;21.83;;;9.75;;
52798;SDS011;38667;42.872;74.622;2024-02-15T06:30:09;26.27;;;8.73;;
52798;SDS011;38667;42.872;74.622;2024-02-15T06:32:36;20.50;;;6.65;;
52798;SDS011;38667;42.872;74.622;2024-02-15T06:35:03;13.13;;;5.28;;
52798;SDS011;38667;42.872;74.622;2024-02-15T06:37:35;13.73;;;5.45;;
52798;SDS011;38667;42.872;74.622;2024-02-15T06:40:05;20.95;;;6.18;;
52798;SDS011;38667;42.872;74.622;2024-02-15T06:42:32;20.73;;;6.90;;
52798;SDS011;38667;42.872;74.622;2024-02-15T06:44:59;21.38;;;7.90;;
52798;SDS011;38667;42.872;74.622;2024-02-15T06:47:25;25.25;;;13.13;;
52798;SDS011;38667;42.872;74.622;2024-02-15T06:49:51;24.58;;;8.60;;
52798;SDS011;38667;42.872;74.622;2024-02-15T06:52:18;19.85;;;9.30;;
52798;SDS011;38667;42.872;74.622;2024-02-15T06:54:44;14.02;;;7.60;;
52798;SDS011;38667;42.872;74.622;2024-02-15T06:57:12;16.35;;;6.35;;
52798;SDS011;38667;42.872;74.622;2024-02-15T06:59:38;18.35;;;7.45;;
52798;SDS011;38667;42.872;74.622;2024-02-15T07:02:05;15.70;;;6.45;;
52798;SDS011;38667;42.872;74.622;2024-02-15T07:04:31;16.27;;;5.15;;
52798;SDS011;38667;42.872;74.622;2024-02-15T07:06:58;23.85;;;6.22;;
52798;SDS011;38667;42.872;74.622;2024-02-15T07:09:24;15.85;;;6.78;;
52798;SDS011;38667;42.872;74.622;2024-02-15T07:11:51;15.27;;;5.18;;
52798;SDS011;38667;42.872;74.622;2024-02-15T07:14:19;14.77;;;5.32;;
52798;SDS011;38667;42.872;74.622;2024-02-15T07:16:46;15.55;;;5.50;;
52798;SDS011;38667;42.872;74.622;2024-02-15T07:19:12;12.25;;;5.30;;
52798;SDS011;38667;42.872;74.622;2024-02-15T07:21:39;15.77;;;6.43;;
52798;SDS011;38667;42.872;74.622;2024-02-15T07:24:06;23.05;;;7.75;;
52798;SDS011;38667;42.872;74.622;2024-02-15T07:26:32;22.17;;;8.45;;
52798;SDS011;38667;42.872;74.622;2024-02-15T07:28:58;18.25;;;7.25;;
52798;SDS011;38667;42.872;74.622;2024-02-15T07:31:28;27.92;;;10.48;;
52798;SDS011;38667;42.872;74.622;2024-02-15T07:33:55;19.50;;;9.65;;
52798;SDS011;38667;42.872;74.622;2024-02-15T07:36:23;20.85;;;9.10;;
52798;SDS011;38667;42.872;74.622;2024-02-15T07:38:49;22.90;;;8.55;;
52798;SDS011;38667;42.872;74.622;2024-02-15T07:41:16;35.22;;;14.48;;
52798;SDS011;38667;42.872;74.622;2024-02-15T07:43:43;22.75;;;11.55;;
52798;SDS011;38667;42.872;74.622;2024-02-15T07:46:11;27.13;;;10.23;;
52798;SDS011;38667;42.872;74.622;2024-02-15T07:48:39;22.70;;;10.57;;
52798;SDS011;38667;42.872;74.622;2024-02-15T07:51:06;26.42;;;10.52;;
52798;SDS011;38667;42.872;74.622;2024-02-15T07:53:32;24.85;;;9.00;;
52798;SDS011;38667;42.872;74.622;2024-02-15T07:55:58;33.45;;;9.35;;
52798;SDS011;38667;42.872;74.622;2024-02-15T07:58:25;14.18;;;7.72;;
52798;SDS011;38667;42.872;74.622;2024-02-15T08:00:51;21.70;;;12.25;;
52798;SDS011;38667;42.872;74.622;2024-02-15T08:03:17;28.83;;;11.60;;
52798;SDS011;38667;42.872;74.622;2024-02-15T08:05:45;18.85;;;7.90;;
52798;SDS011;38667;42.872;74.622;2024-02-15T08:08:12;22.95;;;9.45;;
52798;SDS011;38667;42.872;74.622;2024-02-15T08:10:38;27.58;;;11.57;;
52798;SDS011;38667;42.872;74.622;2024-02-15T08:13:04;33.97;;;13.57;;
52798;SDS011;38667;42.872;74.622;2024-02-15T08:15:31;34.83;;;11.23;;
52798;SDS011;38667;42.872;74.622;2024-02-15T08:17:57;34.97;;;15.07;;
52798;SDS011;38667;42.872;74.622;2024-02-15T08:20:23;25.80;;;10.10;;
52798;SDS011;38667;42.872;74.622;2024-02-15T08:22:51;20.25;;;7.85;;
52798;SDS011;38667;42.872;74.622;2024-02-15T08:25:18;24.42;;;6.95;;
52798;SDS011;38667;42.872;74.622;2024-02-15T08:27:46;28.17;;;7.72;;
52798;SDS011;38667;42.872;74.622;2024-02-15T08:30:13;23.67;;;7.78;;
52798;SDS011;38667;42.872;74.622;2024-02-15T08:32:40;20.15;;;5.90;;
52798;SDS011;38667;42.872;74.622;2024-02-15T08:35:07;31.30;;;7.05;;
52798;SDS011;38667;42.872;74.622;2024-02-15T08:37:34;22.30;;;6.95;;
52798;SDS011;38667;42.872;74.622;2024-02-15T08:40:02;34.50;;;10.50;;
52798;SDS011;38667;42.872;74.622;2024-02-15T08:42:29;40.88;;;13.85;;
52798;SDS011;38667;42.872;74.622;2024-02-15T08:44:57;53.45;;;16.35;;
52798;SDS011;38667;42.872;74.622;2024-02-15T08:47:23;57.83;;;17.83;;
52798;SDS011;38667;42.872;74.622;2024-02-15T08:49:49;52.92;;;18.00;;
52798;SDS011;38667;42.872;74.622;2024-02-15T08:52:16;52.40;;;15.32;;
52798;SDS011;38667;42.872;74.622;2024-02-15T08:54:42;45.88;;;14.57;;
52798;SDS011;38667;42.872;74.622;2024-02-15T08:57:10;44.22;;;13.88;;
52798;SDS011;38667;42.872;74.622;2024-02-15T08:59:36;61.88;;;17.75;;
52798;SDS011;38667;42.872;74.622;2024-02-15T09:02:04;35.33;;;14.85;;
52798;SDS011;38667;42.872;74.622;2024-02-15T09:04:31;62.35;;;20.20;;
52798;SDS011;38667;42.872;74.622;2024-02-15T09:06:57;68.70;;;26.55;;
52798;SDS011;38667;42.872;74.622;2024-02-15T09:09:23;72.57;;;30.48;;
52798;SDS011;38667;42.872;74.622;2024-02-15T09:11:50;94.13;;;34.08;;
52798;SDS011;38667;42.872;74.622;2024-02-15T09:14:18;86.93;;;32.40;;
52798;SDS011;38667;42.872;74.622;2024-02-15T09:16:45;104.05;;;34.13;;
52798;SDS011;38667;42.872;74.622;2024-02-15T09:19:11;39.70;;;15.18;;
52798;SDS011;38667;42.872;74.622;2024-02-15T09:21:37;30.15;;;9.85;;
52798;SDS011;38667;42.872;74.622;2024-02-15T09:24:04;40.30;;;10.98;;
52798;SDS011;38667;42.872;74.622;2024-02-15T09:26:30;27.52;;;8.35;;
52798;SDS011;38667;42.872;74.622;2024-02-15T09:28:57;38.53;;;8.77;;
52798;SDS011;38667;42.872;74.622;2024-02-15T09:31:25;30.70;;;8.55;;
52798;SDS011;38667;42.872;74.622;2024-02-15T09:33:51;24.25;;;8.10;;
52798;SDS011;38667;42.872;74.622;2024-02-15T09:36:18;27.10;;;6.88;;
52798;SDS011;38667;42.872;74.622;2024-02-15T09:38:44;26.98;;;6.03;;
52798;SDS011;38667;42.872;74.622;2024-02-15T09:41:10;26.40;;;6.30;;
52798;SDS011;38667;42.872;74.622;2024-02-15T09:43:37;20.13;;;6.38;;
52798;SDS011;38667;42.872;74.622;2024-02-15T09:46:04;26.17;;;6.22;;
52798;SDS011;38667;42.872;74.622;2024-02-15T09:48:32;19.25;;;5.18;;
52798;SDS011;38667;42.872;74.622;2024-02-15T09:51:00;33.80;;;5.32;;
52798;SDS011;38667;42.872;74.622;2024-02-15T09:53:28;29.73;;;6.47;;
52798;SDS011;38667;42.872;74.622;2024-02-15T09:55:55;28.05;;;6.15;;
52798;SDS011;38667;42.872;74.622;2024-02-15T09:58:22;24.88;;;6.28;;
52798;SDS011;38667;42.872;74.622;2024-02-15T10:00:48;32.90;;;5.70;;
52798;SDS011;38667;42.872;74.622;2024-02-15T10:03:16;40.53;;;7.07;;
52798;SDS011;38667;42.872;74.622;2024-02-15T10:05:45;42.60;;;6.47;;
52798;SDS011;38667;42.872;74.622;2024-02-15T10:08:14;32.15;;;8.15;;
52798;SDS011;38667;42.872;74.622;2024-02-15T10:10:40;62.03;;;9.88;;
52798;SDS011;38667;42.872;74.622;2024-02-15T10:13:08;29.83;;;6.95;;
52798;SDS011;38667;42.872;74.622;2024-02-15T10:15:39;32.38;;;6.35;;
52798;SDS011;38667;42.872;74.622;2024-02-15T10:18:06;33.00;;;5.75;;
52798;SDS011;38667;42.872;74.622;2024-02-15T10:20:33;20.42;;;4.65;;
52798;SDS011;38667;42.872;74.622;2024-02-15T10:23:10;25.48;;;5.05;;
52798;SDS011;38667;42.872;74.622;2024-02-15T10:25:38;19.20;;;4.93;;
52798;SDS011;38667;42.872;74.622;2024-02-15T10:28:05;20.38;;;6.45;;
52798;SDS011;38667;42.872;74.622;2024-02-15T10:30:33;25.10;;;6.50;;
52798;SDS011;38667;42.872;74.622;2024-02-15T10:33:00;26.77;;;5.43;;
52798;SDS011;38667;42.872;74.622;2024-02-15T10:35:27;25.83;;;5.85;;
52798;SDS011;38667;42.872;74.622;2024-02-15T10:38:04;23.50;;;6.45;;
52798;SDS011;38667;42.872;74.622;2024-02-15T10:40:33;15.18;;;5.10;;
52798;SDS011;38667;42.872;74.622;2024-02-15T10:43:00;24.20;;;5.95;;
52798;SDS011;38667;42.872;74.622;2024-02-15T10:45:28;22.35;;;5.60;;
52798;SDS011;38667;42.872;74.622;2024-02-15T10:47:56;29.25;;;7.22;;
52798;SDS011;38667;42.872;74.622;2024-02-15T10:50:23;25.88;;;5.55;;
52798;SDS011;38667;42.872;74.622;2024-02-15T10:52:51;26.48;;;7.22;;
52798;SDS011;38667;42.872;74.622;2024-02-15T10:55:22;29.55;;;7.30;;
52798;SDS011;38667;42.872;74.622;2024-02-15T10:57:59;30.33;;;7.72;;
52798;SDS011;38667;42.872;74.622;2024-02-15T11:00:27;30.10;;;7.43;;
52798;SDS011;38667;42.872;74.622;2024-02-15T11:02:59;33.15;;;6.50;;
52798;SDS011;38667;42.872;74.622;2024-02-15T11:05:27;30.85;;;7.50;;
52798;SDS011;38667;42.872;74.622;2024-02-15T11:07:57;34.03;;;8.38;;
52798;SDS011;38667;42.872;74.622;2024-02-15T11:10:23;34.38;;;8.43;;
52798;SDS011;38667;42.872;74.622;2024-02-15T11:12:51;30.80;;;8.15;;
52798;SDS011;38667;42.872;74.622;2024-02-15T11:18:10;37.83;;;8.82;;
52798;SDS011;38667;42.872;74.622;2024-02-15T11:20:46;26.00;;;8.45;;
52798;SDS011;38667;42.872;74.622;2024-02-15T11:23:13;28.52;;;8.50;;
52798;SDS011;38667;42.872;74.622;2024-02-15T11:25:50;47.80;;;10.25;;
52798;SDS011;38667;42.872;74.622;2024-02-15T11:31:08;60.45;;;12.45;;
52798;SDS011;38667;42.872;74.622;2024-02-15T11:33:35;41.42;;;9.70;;
52798;SDS011;38667;42.872;74.622;2024-02-15T11:36:02;36.92;;;9.00;;
52798;SDS011;38667;42.872;74.622;2024-02-15T11:38:29;54.25;;;9.82;;
52798;SDS011;38667;42.872;74.622;2024-02-15T11:41:02;37.78;;;8.82;;
52798;SDS011;38667;42.872;74.622;2024-02-15T11:46:15;54.30;;;12.90;;
52798;SDS011;38667;42.872;74.622;2024-02-15T11:48:42;72.55;;;12.70;;
52798;SDS011;38667;42.872;74.622;2024-02-15T11:51:09;92.15;;;22.15;;
52798;SDS011;38667;42.872;74.622;2024-02-15T11:53:35;164.63;;;48.75;;
52798;SDS011;38667;42.872;74.622;2024-02-15T11:56:02;154.00;;;49.72;;
52798;SDS011;38667;42.872;74.622;2024-02-15T11:58:28;158.57;;;47.15;;
52798;SDS011;38667;42.872;74.622;2024-02-15T12:00:58;145.82;;;42.78;;
52798;SDS011;38667;42.872;74.622;2024-02-15T12:03:27;116.57;;;34.90;;
52798;SDS011;38667;42.872;74.622;2024-02-15T12:05:54;113.35;;;25.13;;
52798;SDS011;38667;42.872;74.622;2024-02-15T12:08:20;100.70;;;26.70;;
52798;SDS011;38667;42.872;74.622;2024-02-15T12:10:56;167.15;;;47.97;;
52798;SDS011;38667;42.872;74.622;2024-02-15T12:13:23;155.32;;;37.47;;
52798;SDS011;38667;42.872;74.622;2024-02-15T12:15:59;110.50;;;30.58;;
52798;SDS011;38667;42.872;74.622;2024-02-15T12:18:27;109.97;;;27.25;;
52798;SDS011;38667;42.872;74.622;2024-02-15T12:20:53;100.28;;;24.55;;
52798;SDS011;38667;42.872;74.622;2024-02-15T12:23:20;97.68;;;21.08;;
52798;SDS011;38667;42.872;74.622;2024-02-15T12:25:50;70.40;;;18.70;;
52798;SDS011;38667;42.872;74.622;2024-02-15T12:28:18;85.88;;;18.70;;
52798;SDS011;38667;42.872;74.622;2024-02-15T12:30:44;77.50;;;20.77;;
52798;SDS011;38667;42.872;74.622;2024-02-15T12:33:11;84.60;;;19.08;;
52798;SDS011;38667;42.872;74.622;2024-02-15T12:35:39;90.20;;;22.55;;
52798;SDS011;38667;42.872;74.622;2024-02-15T12:38:06;89.15;;;20.83;;
52798;SDS011;38667;42.872;74.622;2024-02-15T12:40:33;84.30;;;21.73;;
52798;SDS011;38667;42.872;74.622;2024-02-15T12:43:00;98.18;;;24.27;;
52798;SDS011;38667;42.872;74.622;2024-02-15T12:45:26;90.38;;;23.38;;
52798;SDS011;38667;42.872;74.622;2024-02-15T12:47:53;79.75;;;22.25;;
52798;SDS011;38667;42.872;74.622;2024-02-15T12:50:20;74.60;;;23.77;;
52798;SDS011;38667;42.872;74.622;2024-02-15T12:52:50;81.68;;;23.70;;
52798;SDS011;38667;42.872;74.622;2024-02-15T12:55:16;103.72;;;27.00;;
52798;SDS011;38667;42.872;74.622;2024-02-15T12:57:44;90.07;;;25.52;;
52798;SDS011;38667;42.872;74.622;2024-02-15T13:00:12;109.72;;;26.75;;
52798;SDS011;38667;42.872;74.622;2024-02-15T13:02:39;96.28;;;29.05;;
52798;SDS011;38667;42.872;74.622;2024-02-15T13:05:06;122.95;;;29.42;;
52798;SDS011;38667;42.872;74.622;2024-02-15T13:07:33;118.65;;;30.23;;
52798;SDS011;38667;42.872;74.622;2024-02-15T13:10:01;125.45;;;32.80;;
52798;SDS011;38667;42.872;74.622;2024-02-15T13:12:30;102.22;;;28.92;;
52798;SDS011;38667;42.872;74.622;2024-02-15T13:14:57;110.03;;;27.15;;
52798;SDS011;38667;42.872;74.622;2024-02-15T13:17:23;90.07;;;24.23;;
52798;SDS011;38667;42.872;74.622;2024-02-15T13:19:49;94.10;;;21.98;;
52798;SDS011;38667;42.872;74.622;2024-02-15T13:22:16;80.50;;;17.08;;
52798;SDS011;38667;42.872;74.622;2024-02-15T13:24:42;67.68;;;16.20;;
52798;SDS011;38667;42.872;74.622;2024-02-15T13:27:10;77.68;;;15.95;;
52798;SDS011;38667;42.872;74.622;2024-02-15T13:29:36;62.70;;;15.40;;
52798;SDS011;38667;42.872;74.622;2024-02-15T13:32:03;62.08;;;14.85;;
52798;SDS011;38667;42.872;74.622;2024-02-15T13:34:30;71.18;;;15.52;;
52798;SDS011;38667;42.872;74.622;2024-02-15T13:36:56;81.03;;;17.92;;
52798;SDS011;38667;42.872;74.622;2024-02-15T13:39:22;57.78;;;16.02;;
52798;SDS011;38667;42.872;74.622;2024-02-15T13:41:49;70.00;;;16.75;;
52798;SDS011;38667;42.872;74.622;2024-02-15T13:44:16;86.88;;;23.67;;
52798;SDS011;38667;42.872;74.622;2024-02-15T13:46:43;76.38;;;22.20;;
52798;SDS011;38667;42.872;74.622;2024-02-15T13:49:11;77.30;;;20.55;;
52798;SDS011;38667;42.872;74.622;2024-02-15T13:51:38;62.83;;;16.17;;
52798;SDS011;38667;42.872;74.622;2024-02-15T13:54:04;61.92;;;17.15;;
52798;SDS011;38667;42.872;74.622;2024-02-15T13:56:30;74.50;;;21.52;;
52798;SDS011;38667;42.872;74.622;2024-02-15T13:58:57;78.10;;;20.83;;
52798;SDS011;38667;42.872;74.622;2024-02-15T14:01:25;77.50;;;18.27;;
52798;SDS011;38667;42.872;74.622;2024-02-15T14:03:51;71.30;;;20.30;;
52798;SDS011;38667;42.872;74.622;2024-02-15T14:06:18;61.60;;;17.23;;
52798;SDS011;38667;42.872;74.622;2024-02-15T14:08:44;69.07;;;17.73;;
52798;SDS011;38667;42.872;74.622;2024-02-15T14:11:10;80.82;;;19.40;;
52798;SDS011;38667;42.872;74.622;2024-02-15T14:13:37;123.80;;;39.17;;
52798;SDS011;38667;42.872;74.622;2024-02-15T14:16:03;108.10;;;32.42;;
52798;SDS011;38667;42.872;74.622;2024-02-15T14:18:32;86.03;;;21.23;;
52798;SDS011;38667;42.872;74.622;2024-02-15T14:20:59;84.00;;;19.45;;